Time;durP1;ratioP1;P1;durP2;ratioP2;P2;SDS_P1;SDS_P2;PMS_P1;PMS_P2;Temp;Humidity;BMP_temperature;BMP_pressure;BME280_temperature;BME280_humidity;BME280_pressure;Samples;Min_cycle;Max_cycle;Signal;HPM_P1;HPM_P2
2021/07/16 00:01:56;;;;;;;1.85;1.67;;;27.50;49.60;;;-147.20;100.00;58430.41;5115751;28;20130;-52
2021/07/16 00:04:22;;;;;;;2.17;1.52;;;27.50;49.60;;;-147.20;100.00;58430.41;5078750;28;20488;-54
2021/07/16 00:06:48;;;;;;;1.42;1.33;;;27.50;49.60;;;-147.20;100.00;58430.41;5097037;28;20126;-54
2021/07/16 00:09:14;;;;;;;1.60;1.50;;;27.50;49.70;;;-147.20;100.00;58430.41;5115280;28;20551;-51
2021/07/16 00:11:40;;;;;;;1.67;1.58;;;27.50;49.70;;;-147.20;100.00;58430.41;5115412;28;20058;-54
2021/07/16 00:14:06;;;;;;;1.63;1.52;;;27.50;49.70;;;-147.20;100.00;58430.41;5115544;28;20519;-53
2021/07/16 00:16:32;;;;;;;1.58;1.48;;;27.40;49.70;;;-147.20;100.00;58430.41;5113998;28;20047;-53
2021/07/16 00:18:58;;;;;;;1.77;1.67;;;27.50;49.80;;;-147.20;100.00;58430.41;5115136;28;20052;-49
2021/07/16 00:21:24;;;;;;;1.52;1.42;;;27.40;49.80;;;-147.20;100.00;58430.41;5115350;28;20052;-54
2021/07/16 00:23:51;;;;;;;1.48;1.38;;;27.40;49.80;;;-147.20;100.00;58430.41;5115145;28;20403;-50
2021/07/16 00:26:16;;;;;;;1.80;1.70;;;27.40;49.80;;;-147.20;100.00;58430.41;5115714;28;20055;-53
2021/07/16 00:28:43;;;;;;;2.08;1.98;;;27.40;49.80;;;-147.20;100.00;58430.41;5095662;28;20570;-52
2021/07/16 00:31:09;;;;;;;2.15;1.95;;;27.40;49.90;;;-147.20;100.00;58430.41;5115150;28;20126;-50
2021/07/16 00:33:35;;;;;;;2.05;1.60;;;27.40;49.90;;;-147.20;100.00;58430.41;5096595;28;20047;-51
2021/07/16 00:36:01;;;;;;;1.63;1.52;;;27.40;49.90;;;-147.20;100.00;58430.41;5114978;28;20043;-51
2021/07/16 00:38:27;;;;;;;1.77;1.67;;;27.40;49.90;;;-147.20;100.00;58430.41;5115096;28;20043;-53
2021/07/16 00:40:55;;;;;;;1.70;1.60;;;27.40;49.90;;;-147.20;100.00;58430.41;5115257;28;20483;-53
2021/07/16 00:43:22;;;;;;;1.67;1.58;;;27.30;49.90;;;-147.20;100.00;58430.41;5115531;28;20125;-52
2021/07/16 00:45:48;;;;;;;1.40;1.30;;;27.30;49.90;;;-147.20;100.00;58430.41;5114704;28;20071;-53
2021/07/16 00:48:14;;;;;;;1.70;1.60;;;27.40;50.00;;;-147.20;100.00;58430.41;5095252;28;20096;-52
2021/07/16 00:50:41;;;;;;;1.70;1.60;;;27.30;50.00;;;-147.20;100.00;58430.41;5114723;28;20502;-49
2021/07/16 00:53:15;;;;;;;1.70;1.60;;;27.30;50.00;;;-147.20;100.00;58430.41;5114903;28;20134;-55
2021/07/16 00:55:42;;;;;;;1.60;1.50;;;27.30;50.10;;;-147.20;100.00;58430.41;5114906;28;20052;-53
2021/07/16 00:58:08;;;;;;;2.05;1.75;;;27.30;50.10;;;-147.20;100.00;58430.41;5114591;28;20983;-52
2021/07/16 01:00:34;;;;;;;1.60;1.50;;;27.30;50.60;;;-147.20;100.00;58430.41;5093895;28;20048;-51
2021/07/16 01:03:00;;;;;;;1.30;1.20;;;27.30;50.10;;;-147.20;100.00;58430.41;5092841;28;20105;-50
2021/07/16 01:05:26;;;;;;;1.50;1.40;;;27.30;50.10;;;-147.20;100.00;58430.41;5114314;28;20056;-47
2021/07/16 01:07:52;;;;;;;1.67;1.58;;;27.30;50.10;;;-147.20;100.00;58430.41;5114170;28;20105;-51
2021/07/16 01:10:21;;;;;;;1.50;1.40;;;27.30;50.20;;;-147.20;100.00;58430.41;5114351;28;20520;-54
2021/07/16 01:12:51;;;;;;;1.30;1.20;;;27.30;50.20;;;-147.20;100.00;58430.41;5114663;28;20048;-54
2021/07/16 01:15:20;;;;;;;2.00;1.60;;;27.30;50.20;;;-147.20;100.00;58430.41;5114920;28;20047;-50
2021/07/16 01:17:46;;;;;;;1.52;1.42;;;27.20;50.20;;;-147.20;100.00;58430.41;5113845;28;20501;-51
2021/07/16 01:20:20;;;;;;;1.92;1.70;;;27.20;50.20;;;-147.20;100.00;58430.41;5114269;28;20040;-54
2021/07/16 01:22:46;;;;;;;2.25;1.40;;;27.20;50.20;;;-147.20;100.00;58430.41;5114662;28;20198;-48
2021/07/16 01:25:19;;;;;;;1.50;1.40;;;27.20;50.20;;;-147.20;100.00;58430.41;5114183;28;20043;-49
2021/07/16 01:27:52;;;;;;;1.50;1.40;;;27.20;50.30;;;-147.20;100.00;58430.41;5114386;28;20047;-49
2021/07/16 01:30:22;;;;;;;1.98;1.75;;;27.20;50.40;;;-147.20;100.00;58430.41;5113922;28;20047;-53
2021/07/16 01:32:49;;;;;;;1.77;1.67;;;27.20;50.30;;;-147.20;100.00;58430.41;5114826;28;20520;-51
2021/07/16 01:35:16;;;;;;;2.00;1.80;;;27.20;50.40;;;-147.20;100.00;58430.41;5114089;28;20054;-50
2021/07/16 01:37:43;;;;;;;1.55;1.45;;;27.20;50.40;;;-147.20;100.00;58430.41;5113951;28;20051;-53
2021/07/16 01:40:21;;;;;;;1.52;1.42;;;27.20;50.40;;;-147.20;100.00;58430.41;5093836;28;20107;-55
2021/07/16 01:42:52;;;;;;;1.95;1.55;;;27.20;50.50;;;-147.20;100.00;58430.41;5114035;28;20105;-51
2021/07/16 01:45:33;;;;;;;1.85;1.50;;;27.20;50.50;;;-147.20;100.00;58430.41;5114469;28;20064;-52
2021/07/16 01:48:07;;;;;;;1.73;1.63;;;27.10;50.50;;;-147.20;100.00;58430.41;5113823;28;20127;-55
2021/07/16 01:50:35;;;;;;;1.50;1.40;;;27.10;50.50;;;-147.20;100.00;58430.41;5114142;28;20047;-53
2021/07/16 01:53:03;;;;;;;1.60;1.50;;;27.10;50.50;;;-147.20;100.00;58430.41;5113922;28;20052;-53
2021/07/16 01:55:32;;;;;;;1.90;1.65;;;27.10;50.60;;;-147.20;100.00;58430.41;5113545;28;20051;-53
2021/07/16 01:58:00;;;;;;;1.50;1.40;;;27.10;50.60;;;-147.20;100.00;58430.41;5113478;28;20050;-53
2021/07/16 02:00:42;;;;;;;1.60;1.50;;;27.10;50.60;;;-147.20;100.00;58430.41;5113748;28;20064;-55
2021/07/16 02:03:11;;;;;;;1.58;1.48;;;27.10;50.60;;;-147.20;100.00;58430.41;5113887;28;20062;-54
2021/07/16 02:05:43;;;;;;;1.90;1.77;;;27.00;50.60;;;-147.20;100.00;58430.41;5113505;28;20376;-52
2021/07/16 02:08:25;;;;;;;1.55;1.45;;;27.10;50.70;;;-147.20;100.00;58430.41;5113376;28;20086;-53
2021/07/16 02:10:55;;;;;;;1.60;1.50;;;27.00;50.70;;;-147.20;100.00;58430.41;5112205;28;20047;-51
2021/07/16 02:13:23;;;;;;;2.33;1.58;;;27.00;50.70;;;-147.20;100.00;58430.41;5113544;28;20051;-52
2021/07/16 02:15:51;;;;;;;1.70;1.45;;;27.00;50.60;;;-147.20;100.00;58430.41;5094051;28;20056;-54
2021/07/16 02:18:17;;;;;;;1.85;1.50;;;27.00;50.70;;;-147.20;100.00;58430.41;5113253;28;20132;-51
2021/07/16 02:20:44;;;;;;;1.52;1.42;;;27.00;50.70;;;-147.20;100.00;58430.41;5113287;28;20071;-51
2021/07/16 02:23:18;;;;;;;1.85;1.75;;;27.00;50.80;;;-147.20;100.00;58430.41;5113043;28;20040;-49
2021/07/16 02:25:44;;;;;;;1.67;1.58;;;27.00;50.80;;;-147.20;100.00;58430.41;5113351;28;20142;-54
2021/07/16 02:28:30;;;;;;;1.50;1.40;;;27.00;50.80;;;-147.20;100.00;58430.41;5113010;28;20155;-48
2021/07/16 02:30:59;;;;;;;1.60;1.48;;;26.90;50.80;;;-147.20;100.00;58430.41;5112121;28;20044;-50
2021/07/16 02:33:26;;;;;;;1.90;1.80;;;26.90;50.80;;;-147.20;100.00;58430.41;5113854;28;20039;-48
2021/07/16 02:35:52;;;;;;;1.52;1.42;;;26.90;50.90;;;-147.20;100.00;58430.41;5095501;28;20059;-53
2021/07/16 02:38:18;;;;;;;2.17;2.03;;;26.90;50.90;;;-147.20;100.00;58430.41;5113334;28;20510;-53
2021/07/16 02:40:45;;;;;;;1.60;1.50;;;26.90;50.90;;;-147.20;100.00;58430.41;5113551;28;20086;-49
2021/07/16 02:43:11;;;;;;;1.88;1.77;;;26.90;50.90;;;-147.20;100.00;58430.41;5112933;28;20100;-52
2021/07/16 02:45:37;;;;;;;1.67;1.58;;;26.90;50.90;;;-147.20;100.00;58430.41;5112863;28;20054;-52
2021/07/16 02:48:03;;;;;;;1.67;1.58;;;26.90;51.00;;;-147.20;100.00;58430.41;5113032;28;20100;-52
2021/07/16 02:50:33;;;;;;;1.60;1.50;;;26.90;51.00;;;-147.20;100.00;58430.41;5113522;28;20043;-53
2021/07/16 02:53:00;;;;;;;1.65;1.55;;;26.90;51.00;;;-147.20;100.00;58430.41;5112874;28;20059;-54
2021/07/16 02:55:26;;;;;;;1.40;1.35;;;26.90;51.10;;;-147.20;100.00;58430.41;5112904;28;20039;-51
2021/07/16 02:57:52;;;;;;;1.80;1.60;;;26.90;51.10;;;-147.20;100.00;58430.41;5112961;28;20525;-47
2021/07/16 03:00:26;;;;;;;1.70;1.60;;;26.90;51.10;;;-147.20;100.00;58430.41;5112889;28;20044;-50
2021/07/16 03:02:51;;;;;;;1.55;1.45;;;26.90;51.10;;;-147.20;100.00;58430.41;5113040;28;20044;-53
2021/07/16 03:05:21;;;;;;;1.60;1.50;;;26.80;51.10;;;-147.20;100.00;58430.41;5112837;28;20051;-52
2021/07/16 03:07:48;;;;;;;1.70;1.60;;;26.90;51.70;;;-147.20;100.00;58430.41;5112791;28;20048;-51
2021/07/16 03:10:34;;;;;;;1.65;1.50;;;26.80;51.10;;;-147.20;100.00;58430.41;5112801;28;20044;-52
2021/07/16 03:13:04;;;;;;;1.60;1.50;;;26.80;51.20;;;-147.20;100.00;58430.41;5112840;28;20052;-52
2021/07/16 03:15:30;;;;;;;1.60;1.50;;;26.80;51.20;;;-147.20;100.00;58430.41;5113126;28;20120;-52
2021/07/16 03:17:56;;;;;;;1.75;1.65;;;26.80;51.20;;;-147.20;100.00;58430.41;5112558;28;20062;-51
2021/07/16 03:20:26;;;;;;;1.65;1.55;;;26.80;51.30;;;-147.20;100.00;58430.41;5112507;28;20078;-50
2021/07/16 03:22:54;;;;;;;1.80;1.70;;;26.80;51.30;;;-147.20;100.00;58430.41;5091049;28;20102;-54
2021/07/16 03:25:21;;;;;;;1.55;1.45;;;26.80;51.30;;;-147.20;100.00;58430.41;5112473;28;20508;-49
2021/07/16 03:27:48;;;;;;;1.75;1.63;;;26.80;51.30;;;-147.20;100.00;58430.41;5112472;28;20439;-51
2021/07/16 03:30:18;;;;;;;2.13;1.95;;;26.80;51.40;;;-147.20;100.00;58430.41;5112435;28;20057;-51
2021/07/16 03:32:44;;;;;;;1.70;1.60;;;26.80;51.40;;;-147.20;100.00;58430.41;5112555;28;20059;-52
2021/07/16 03:35:11;;;;;;;2.13;1.92;;;26.80;51.40;;;-147.20;100.00;58430.41;5112754;28;20053;-52
2021/07/16 03:37:38;;;;;;;1.60;1.50;;;26.70;51.40;;;-147.20;100.00;58430.41;5112491;28;20055;-53
2021/07/16 03:40:07;;;;;;;1.65;1.55;;;26.70;51.30;;;-147.20;100.00;58430.41;5112326;28;20056;-54
2021/07/16 03:42:33;;;;;;;1.70;1.60;;;26.80;51.40;;;-147.20;100.00;58430.41;5115073;28;20051;-53
2021/07/16 03:44:59;;;;;;;2.70;1.77;;;26.80;51.40;;;-147.20;100.00;58430.41;5115791;28;20047;-51
2021/07/16 03:47:24;;;;;;;1.88;1.75;;;26.80;51.40;;;-147.20;100.00;58430.41;5116110;28;20046;-53
2021/07/16 03:49:50;;;;;;;1.45;1.35;;;26.80;51.30;;;-147.20;100.00;58430.41;5115769;28;20043;-54
2021/07/16 03:52:16;;;;;;;1.80;1.60;;;26.80;51.30;;;-147.20;100.00;58430.41;5115740;28;20047;-54
2021/07/16 03:54:42;;;;;;;1.70;1.30;;;26.80;51.30;;;-147.20;100.00;58430.41;5115794;28;20491;-54
2021/07/16 03:57:08;;;;;;;1.80;1.70;;;26.80;51.30;;;-147.20;100.00;58430.41;5115654;28;20040;-50
2021/07/16 03:59:34;;;;;;;1.98;1.70;;;26.80;51.30;;;-147.20;100.00;58430.41;5115650;28;20058;-54
2021/07/16 04:02:03;;;;;;;1.73;1.55;;;26.80;51.40;;;-147.20;100.00;58430.41;5115658;28;20071;-52
2021/07/16 04:04:28;;;;;;;1.60;1.50;;;26.80;51.30;;;-147.20;100.00;58430.41;5115428;28;20131;-52
2021/07/16 04:06:56;;;;;;;2.17;1.95;;;26.80;51.30;;;-147.20;100.00;58430.41;5115579;28;20126;-54
2021/07/16 04:09:27;;;;;;;1.67;1.58;;;26.80;51.30;;;-147.20;100.00;58430.41;5115405;28;20051;-53
2021/07/16 04:12:12;;;;;;;1.73;1.63;;;26.80;51.30;;;-147.20;100.00;58430.41;5115827;28;20385;-52
2021/07/16 04:15:01;;;;;;;1.60;1.50;;;26.80;51.30;;;-147.20;100.00;58430.41;5116086;28;20135;-52
2021/07/16 04:17:27;;;;;;;1.60;1.50;;;26.80;51.30;;;-147.20;100.00;58430.41;5114484;28;20040;-53
2021/07/16 04:19:54;;;;;;;1.55;1.45;;;26.80;51.30;;;-147.20;100.00;58430.41;5115538;28;20050;-50
2021/07/16 04:22:23;;;;;;;1.58;1.48;;;26.80;51.20;;;-147.20;100.00;58430.41;5115804;28;20051;-52
2021/07/16 04:24:50;;;;;;;2.15;1.77;;;26.90;51.30;;;-147.20;100.00;58430.41;5097607;28;20050;-53
2021/07/16 04:27:16;;;;;;;1.83;1.70;;;26.90;51.30;;;-147.20;100.00;58430.41;5115331;28;20050;-51
2021/07/16 04:29:43;;;;;;;1.60;1.50;;;26.90;51.20;;;-147.20;100.00;58430.41;5115176;28;20051;-51
2021/07/16 04:32:12;;;;;;;2.22;1.80;;;26.90;51.30;;;-147.20;100.00;58430.41;5115433;28;20044;-51
2021/07/16 04:34:39;;;;;;;1.83;1.73;;;26.90;51.30;;;-147.20;100.00;58430.41;5115054;28;20052;-49
2021/07/16 04:37:07;;;;;;;1.80;1.55;;;26.90;51.30;;;-147.20;100.00;58430.41;5097182;28;20052;-52
2021/07/16 04:39:34;;;;;;;1.50;1.40;;;26.90;51.30;;;-147.20;100.00;58430.41;5114898;28;20494;-50
2021/07/16 04:42:00;;;;;;;1.40;1.30;;;26.80;51.20;;;-147.20;100.00;58430.41;5114964;28;20055;-53
2021/07/16 04:44:27;;;;;;;1.55;1.45;;;26.80;51.20;;;-147.20;100.00;58430.41;5114819;28;20040;-49
2021/07/16 04:46:53;;;;;;;1.95;1.45;;;26.80;51.30;;;-147.20;100.00;58430.41;5114730;28;20143;-49
2021/07/16 04:49:18;;;;;;;1.70;1.60;;;26.80;51.30;;;-147.20;100.00;58430.41;5114748;28;20538;-48
2021/07/16 04:51:44;;;;;;;2.00;1.80;;;26.90;51.40;;;-147.20;100.00;58430.41;5114884;28;20127;-49
2021/07/16 04:54:14;;;;;;;1.67;1.52;;;26.80;51.30;;;-147.20;100.00;58430.41;5114019;28;20047;-49
2021/07/16 04:56:40;;;;;;;1.70;1.60;;;26.80;51.30;;;-147.20;100.00;58430.41;5114712;28;20043;-49
2021/07/16 04:59:06;;;;;;;1.73;1.63;;;26.80;51.30;;;-147.20;100.00;58430.41;5114797;28;20055;-48
2021/07/16 05:01:31;;;;;;;1.70;1.60;;;26.80;51.30;;;-147.20;100.00;58430.41;5114961;28;20051;-48
2021/07/16 05:03:57;;;;;;;1.67;1.58;;;26.90;51.30;;;-147.20;100.00;58430.41;5114685;28;20048;-51
2021/07/16 05:06:24;;;;;;;1.95;1.75;;;26.90;51.30;;;-147.20;100.00;58430.41;5114326;28;20040;-51
2021/07/16 05:08:50;;;;;;;1.50;1.40;;;26.90;51.30;;;-147.20;100.00;58430.41;5114686;28;20079;-51
2021/07/16 05:11:18;;;;;;;2.40;1.67;;;26.90;51.20;;;-147.20;100.00;58430.41;5114520;28;20065;-48
2021/07/16 05:13:44;;;;;;;1.75;1.65;;;27.00;51.30;;;-147.20;100.00;58430.41;5114268;28;20418;-51
2021/07/16 05:16:12;;;;;;;1.85;1.70;;;27.10;51.10;;;-147.20;100.00;58430.41;5114254;28;20109;-46
2021/07/16 05:18:39;;;;;;;2.78;1.92;;;27.10;50.90;;;-147.20;100.00;58430.41;5114646;28;20047;-47
2021/07/16 05:21:08;;;;;;;1.58;1.48;;;27.20;50.80;;;-147.20;100.00;58430.41;5114326;28;20138;-47
2021/07/16 05:23:34;;;;;;;1.90;1.80;;;27.30;50.70;;;-147.20;100.00;58430.41;5112894;28;20483;-49
2021/07/16 05:26:00;;;;;;;1.88;1.70;;;27.30;50.50;;;-147.20;100.00;58430.41;5114468;28;20058;-46
2021/07/16 05:28:26;;;;;;;2.45;1.90;;;27.40;50.40;;;-147.20;100.00;58430.41;5114516;28;20039;-48
2021/07/16 05:30:53;;;;;;;2.13;1.70;;;27.40;50.30;;;-147.20;100.00;58430.41;5114211;28;20380;-47
2021/07/16 05:33:19;;;;;;;1.65;1.55;;;27.40;50.20;;;-147.20;100.00;58430.41;5114191;28;20475;-48
2021/07/16 05:35:45;;;;;;;1.65;1.55;;;27.40;50.10;;;-147.20;100.00;58430.41;5113836;28;20097;-52
2021/07/16 05:38:11;;;;;;;1.60;1.50;;;27.50;50.20;;;-147.20;100.00;58430.41;5113915;28;20126;-49
2021/07/16 05:40:38;;;;;;;2.63;1.67;;;27.50;50.10;;;-147.20;100.00;58430.41;5114268;28;20415;-52
2021/07/16 05:43:09;;;;;;;1.40;1.30;;;27.50;50.10;;;-147.20;100.00;58430.41;5113817;28;20058;-48
2021/07/16 05:45:37;;;;;;;1.80;1.70;;;27.60;50.10;;;-147.20;100.00;58430.41;5112337;28;20052;-48
2021/07/16 05:48:05;;;;;;;1.92;1.75;;;27.60;49.90;;;-147.20;100.00;58430.41;5114066;28;20074;-53
2021/07/16 05:50:31;;;;;;;1.70;1.60;;;27.60;49.80;;;-147.20;100.00;58430.41;5113712;28;20055;-49
2021/07/16 05:52:58;;;;;;;1.40;1.30;;;27.60;49.80;;;-147.20;100.00;58430.41;5113750;28;20101;-53
2021/07/16 05:55:24;;;;;;;2.38;1.70;;;27.70;49.80;;;-147.20;100.00;58430.41;5112332;28;20048;-50
2021/07/16 05:57:49;;;;;;;1.98;1.80;;;27.80;49.80;;;-147.20;100.00;58430.41;5113786;28;20123;-54
2021/07/16 06:00:16;;;;;;;1.63;1.52;;;27.80;49.70;;;-147.20;100.00;58430.41;5113726;28;20122;-51
2021/07/16 06:02:42;;;;;;;1.67;1.50;;;27.80;49.60;;;-147.20;100.00;58430.41;5113640;28;20487;-52
2021/07/16 06:05:09;;;;;;;2.58;1.50;;;27.80;49.60;;;-147.20;100.00;58430.41;5113508;28;20079;-49
2021/07/16 06:07:34;;;;;;;1.77;1.48;;;27.90;49.50;;;-147.20;100.00;58430.41;5095294;28;20441;-50
2021/07/16 06:10:00;;;;;;;2.22;1.70;;;27.90;49.40;;;-147.20;100.00;58430.41;5112538;28;20047;-54
2021/07/16 06:12:26;;;;;;;1.50;1.40;;;27.90;49.30;;;-147.20;100.00;58430.41;5113497;28;20134;-50
2021/07/16 06:14:54;;;;;;;1.90;1.73;;;27.90;49.30;;;-147.20;100.00;58430.41;5113510;28;20101;-54
2021/07/16 06:17:25;;;;;;;1.77;1.58;;;27.90;49.30;;;-147.20;100.00;58430.41;5095502;28;20047;-50
2021/07/16 06:19:52;;;;;;;1.67;1.58;;;27.90;49.20;;;-147.20;100.00;58430.41;5113767;28;20471;-49
2021/07/16 06:22:18;;;;;;;1.65;1.55;;;28.00;49.30;;;-147.20;100.00;58430.41;5095106;28;20489;-52
2021/07/16 06:24:44;;;;;;;1.60;1.50;;;28.00;49.20;;;-147.20;100.00;58430.41;5113315;28;20052;-54
2021/07/16 06:27:10;;;;;;;1.73;1.40;;;28.00;49.20;;;-147.20;100.00;58430.41;5113270;28;20066;-47
2021/07/16 06:29:36;;;;;;;3.42;1.58;;;28.00;49.10;;;-147.20;100.00;58430.41;5113559;28;20043;-50
2021/07/16 06:32:03;;;;;;;1.70;1.60;;;28.10;49.10;;;-147.20;100.00;58430.41;5113169;28;20043;-52
2021/07/16 06:34:29;;;;;;;2.42;2.10;;;28.20;49.00;;;-147.20;100.00;58430.41;5113192;28;20052;-51
2021/07/16 06:36:55;;;;;;;1.85;1.67;;;28.30;48.90;;;-147.20;100.00;58430.41;5094643;28;20074;-51
2021/07/16 06:39:21;;;;;;;1.77;1.67;;;28.30;48.80;;;-147.20;100.00;58430.41;5113452;28;20048;-55
2021/07/16 06:41:47;;;;;;;2.13;1.58;;;28.40;48.70;;;-147.20;100.00;58430.41;5113378;28;20534;-51
2021/07/16 06:44:13;;;;;;;1.77;1.55;;;28.40;48.60;;;-147.20;100.00;58430.41;5112941;28;20052;-52
2021/07/16 06:46:40;;;;;;;1.52;1.42;;;28.50;48.50;;;-147.20;100.00;58430.41;5113038;28;20461;-52
2021/07/16 06:49:06;;;;;;;1.55;1.42;;;28.50;48.30;;;-147.20;100.00;58430.41;5113192;28;20047;-53
2021/07/16 06:51:33;;;;;;;2.50;1.63;;;28.60;48.30;;;-147.20;100.00;58430.41;5113385;28;20126;-53
2021/07/16 06:53:59;;;;;;;1.67;1.50;;;28.60;48.20;;;-147.20;100.00;58430.41;5113310;28;20494;-50
2021/07/16 06:56:25;;;;;;;1.73;1.55;;;28.70;48.10;;;-147.20;100.00;58430.41;5113345;28;20078;-53
2021/07/16 06:58:52;;;;;;;1.60;1.40;;;28.70;48.00;;;-147.20;100.00;58430.41;5112938;28;20443;-51
2021/07/16 07:01:21;;;;;;;1.40;1.30;;;28.80;47.90;;;-147.20;100.00;58430.41;5112916;28;20066;-49
2021/07/16 07:03:47;;;;;;;1.83;1.73;;;28.90;47.80;;;-147.20;100.00;58430.41;5113031;28;20448;-53
2021/07/16 07:06:13;;;;;;;2.33;1.40;;;28.90;47.70;;;-147.20;100.00;58430.41;5113020;28;20434;-52
2021/07/16 07:08:39;;;;;;;1.55;1.45;;;29.00;47.70;;;-147.20;100.00;58430.41;5112805;28;20035;-50
2021/07/16 07:11:06;;;;;;;1.55;1.45;;;29.00;47.50;;;-147.20;100.00;58430.41;5112805;28;20051;-51
2021/07/16 07:13:33;;;;;;;1.67;1.58;;;29.10;47.50;;;-147.20;100.00;58430.41;5112946;28;20045;-52
2021/07/16 07:15:59;;;;;;;1.85;1.50;;;29.10;47.40;;;-147.20;100.00;58430.41;5113074;28;20048;-52
2021/07/16 07:18:26;;;;;;;1.55;1.45;;;29.10;47.30;;;-147.20;100.00;58430.41;5116214;28;20119;-47
2021/07/16 07:20:54;;;;;;;1.60;1.50;;;29.20;47.20;;;-147.20;100.00;58430.41;5116218;28;20043;-54
2021/07/16 07:23:22;;;;;;;1.73;1.60;;;29.20;47.20;;;-147.20;100.00;58430.41;5116230;28;20047;-53
2021/07/16 07:25:49;;;;;;;1.60;1.50;;;29.20;47.10;;;-147.20;100.00;58430.41;5097593;28;20043;-52
2021/07/16 07:28:16;;;;;;;1.63;1.52;;;29.20;47.10;;;-147.20;100.00;58430.41;5115782;28;20058;-53
2021/07/16 07:30:42;;;;;;;1.55;1.40;;;29.30;47.10;;;-147.20;100.00;58430.41;5115850;28;20062;-50
2021/07/16 07:33:08;;;;;;;1.33;1.10;;;29.30;47.00;;;-147.20;100.00;58430.41;5116047;28;20047;-49
2021/07/16 07:35:35;;;;;;;2.20;1.70;;;29.40;46.90;;;-147.20;100.00;58430.41;5115625;28;20143;-55
2021/07/16 07:38:04;;;;;;;1.60;1.50;;;29.40;46.80;;;-147.20;100.00;58430.41;5115660;28;20116;-51
2021/07/16 07:40:30;;;;;;;1.60;1.50;;;29.40;46.70;;;-147.20;100.00;58430.41;5113946;28;20047;-50
2021/07/16 07:42:58;;;;;;;1.42;1.33;;;29.40;46.70;;;-147.20;100.00;58430.41;5115845;28;20471;-49
2021/07/16 07:45:24;;;;;;;1.77;1.40;;;29.40;46.70;;;-147.20;100.00;58430.41;5115885;28;20047;-54
2021/07/16 07:47:50;;;;;;;1.98;1.65;;;29.50;46.70;;;-147.20;100.00;58430.41;5115894;28;20043;-52
2021/07/16 07:50:18;;;;;;;1.60;1.50;;;29.50;46.60;;;-147.20;100.00;58430.41;5115801;28;20050;-50
2021/07/16 07:52:48;;;;;;;1.75;1.40;;;29.60;46.50;;;-147.20;100.00;58430.41;5115600;28;20384;-50
2021/07/16 07:55:16;;;;;;;1.35;1.25;;;29.60;46.50;;;-147.20;100.00;58430.41;5116036;28;20044;-54
2021/07/16 07:57:42;;;;;;;1.67;1.58;;;29.50;46.50;;;-147.20;100.00;58430.41;5116203;28;20066;-54
2021/07/16 08:00:13;;;;;;;2.63;1.30;;;29.60;46.50;;;-147.20;100.00;58430.41;5115806;28;20043;-52
2021/07/16 08:02:40;;;;;;;1.52;1.42;;;29.60;46.40;;;-147.20;100.00;58430.41;5115616;28;20130;-54
2021/07/16 08:05:08;;;;;;;1.58;1.48;;;29.70;46.30;;;-147.20;100.00;58430.41;5115477;28;20056;-50
2021/07/16 08:07:36;;;;;;;2.00;1.80;;;29.70;46.30;;;-147.20;100.00;58430.41;5115476;28;20040;-53
2021/07/16 08:10:04;;;;;;;1.40;1.30;;;29.70;46.20;;;-147.20;100.00;58430.41;5115289;28;20059;-48
2021/07/16 08:12:29;;;;;;;1.83;1.50;;;29.70;46.20;;;-147.20;100.00;58430.41;5115065;28;20096;-48
2021/07/16 08:14:55;;;;;;;1.50;1.30;;;29.70;46.20;;;-147.20;100.00;58430.41;5114740;28;20409;-52
2021/07/16 08:17:21;;;;;;;1.90;1.33;;;29.70;46.20;;;-147.20;100.00;58430.41;5115807;28;20043;-51
2021/07/16 08:19:47;;;;;;;2.00;1.40;;;29.70;46.10;;;-147.20;100.00;58430.41;5115241;28;20134;-52
2021/07/16 08:22:13;;;;;;;1.63;1.48;;;29.80;46.10;;;-147.20;100.00;58430.41;5115486;28;20059;-51
2021/07/16 08:24:39;;;;;;;2.15;1.35;;;29.80;46.00;;;-147.20;100.00;58430.41;5115112;28;20058;-51
2021/07/16 08:27:05;;;;;;;1.60;1.40;;;29.90;45.90;;;-147.20;100.00;58430.41;5114560;28;20060;-51
2021/07/16 08:29:31;;;;;;;1.90;1.58;;;29.90;45.90;;;-147.20;100.00;58430.41;5078701;28;20051;-54
2021/07/16 08:31:56;;;;;;;1.67;1.58;;;29.90;45.90;;;-147.20;100.00;58430.41;5115385;28;20056;-51
2021/07/16 08:34:22;;;;;;;1.67;1.58;;;29.90;45.80;;;-147.20;100.00;58430.41;5115085;28;20051;-48
2021/07/16 08:36:48;;;;;;;1.50;1.40;;;30.00;45.90;;;-147.20;100.00;58430.41;5114918;28;20134;-52
2021/07/16 08:39:14;;;;;;;1.50;1.40;;;29.90;45.80;;;-147.20;100.00;58430.41;5115194;28;20055;-51
2021/07/16 08:41:40;;;;;;;1.65;1.55;;;29.90;45.80;;;-147.20;100.00;58430.41;5115222;28;20036;-54
2021/07/16 08:44:06;;;;;;;1.40;1.30;;;29.90;45.80;;;-147.20;100.00;58430.41;5114787;28;20047;-53
2021/07/16 08:46:32;;;;;;;1.65;1.55;;;29.90;45.70;;;-147.20;100.00;58430.41;5113462;28;20048;-52
2021/07/16 08:48:58;;;;;;;1.30;1.20;;;30.00;45.80;;;-147.20;100.00;58430.41;5114814;28;20061;-54
2021/07/16 08:51:25;;;;;;;1.50;1.35;;;30.00;45.80;;;-147.20;100.00;58430.41;5079579;28;20134;-50
2021/07/16 08:53:54;;;;;;;1.40;1.30;;;30.00;45.80;;;-147.20;100.00;58430.41;5114743;28;20127;-49
2021/07/16 08:56:22;;;;;;;1.50;1.40;;;30.00;45.80;;;-147.20;100.00;58430.41;5115002;28;20044;-49
2021/07/16 08:58:48;;;;;;;1.48;1.20;;;30.00;45.70;;;-147.20;100.00;58430.41;5114589;28;20080;-52
2021/07/16 09:01:14;;;;;;;1.52;1.42;;;30.00;45.80;;;-147.20;100.00;58430.41;5114529;28;20096;-51
2021/07/16 09:04:09;;;;;;;1.42;1.33;;;30.00;45.70;;;-147.20;100.00;58430.41;5113313;28;20138;-50
2021/07/16 09:06:53;;;;;;;1.88;1.50;;;30.00;45.80;;;-147.20;100.00;58430.41;5092066;28;20044;-54
2021/07/16 09:09:24;;;;;;;2.08;1.60;;;30.00;45.70;;;-147.20;100.00;58430.41;5114350;28;20048;-55
2021/07/16 09:11:56;;;;;;;1.33;1.23;;;30.00;45.70;;;-147.20;100.00;58430.41;5114449;28;20043;-50
2021/07/16 09:14:30;;;;;;;1.50;1.40;;;30.00;45.70;;;-147.20;100.00;58430.41;5114737;28;20043;-53
2021/07/16 09:17:03;;;;;;;1.98;1.40;;;30.00;45.70;;;-147.20;100.00;58430.41;5115000;28;20055;-48
2021/07/16 09:19:43;;;;;;;1.85;1.45;;;30.00;45.80;;;-147.20;100.00;58430.41;5114298;28;20159;-53
2021/07/16 09:22:20;;;;;;;1.48;1.30;;;30.00;45.80;;;-147.20;100.00;58430.41;5114274;28;20044;-49
2021/07/16 09:25:04;;;;;;;1.98;1.58;;;30.00;45.80;;;-147.20;100.00;58430.41;5114301;28;20151;-50
2021/07/16 09:27:37;;;;;;;1.58;1.48;;;30.00;45.80;;;-147.20;100.00;58430.41;5114457;28;20055;-47
2021/07/16 09:30:21;;;;;;;1.23;1.15;;;30.00;45.80;;;-147.20;100.00;58430.41;5094039;28;20072;-52
2021/07/16 09:32:53;;;;;;;2.53;1.48;;;30.00;45.80;;;-147.20;100.00;58430.41;5114096;28;20122;-49
2021/07/16 09:35:32;;;;;;;1.65;1.55;;;29.90;45.70;;;-147.20;100.00;58430.41;5114058;28;20059;-52
2021/07/16 09:38:06;;;;;;;1.60;1.50;;;30.00;45.80;;;-147.20;100.00;58430.41;5113996;28;20120;-51
2021/07/16 09:40:40;;;;;;;1.70;1.60;;;29.90;45.70;;;-147.20;100.00;58430.41;5113646;28;20051;-52
2021/07/16 09:43:11;;;;;;;1.73;1.38;;;30.00;45.80;;;-147.20;100.00;58430.41;5111278;28;20067;-53
2021/07/16 09:45:58;;;;;;;1.58;1.40;;;30.00;45.80;;;-147.20;100.00;58430.41;5113799;28;20105;-52
2021/07/16 09:48:33;;;;;;;1.90;1.58;;;29.90;45.70;;;-147.20;100.00;58430.41;5114160;28;20104;-54
2021/07/16 09:51:25;;;;;;;1.40;1.30;;;29.90;45.70;;;-147.20;100.00;58430.41;5113917;28;20061;-50
2021/07/16 09:53:59;;;;;;;1.88;1.60;;;29.90;45.70;;;-147.20;100.00;58430.41;5113782;28;20075;-52
2021/07/16 09:56:27;;;;;;;1.60;1.50;;;30.00;45.80;;;-147.20;100.00;58430.41;5113927;28;20079;-52
2021/07/16 09:59:13;;;;;;;1.60;1.33;;;29.90;45.70;;;-147.20;100.00;58430.41;5113813;28;20123;-57
2021/07/16 10:01:43;;;;;;;2.15;1.52;;;30.00;45.80;;;-147.20;100.00;58430.41;5113635;28;20044;-52
2021/07/16 10:04:20;;;;;;;1.50;1.30;;;30.00;45.70;;;-147.20;100.00;58430.41;5113745;28;20052;-52
2021/07/16 10:06:50;;;;;;;1.50;1.40;;;30.00;45.70;;;-147.20;100.00;58430.41;5113421;28;20491;-55